Time;durP1;ratioP1;P1;durP2;ratioP2;P2;SDS_P1;SDS_P2;PMS_P1;PMS_P2;Temp;Humidity;BMP_temperature;BMP_pressure;BME280_temperature;BME280_humidity;BME280_pressure;Samples;Min_cycle;Max_cycle;Signal;HPM_P1;HPM_P2
2023/09/07 00:02:01;;;;;;;4.20;3.20;;;26.50;68.30;;;;;;4179639;28;20174;-50
2023/09/07 00:04:43;;;;;;;;;;;26.40;68.50;;;;;;4186336;28;20636;-46
2023/09/07 00:07:24;;;;;;;4.55;3.03;;;26.40;69.00;;;;;;4187010;28;19931;-40
2023/09/07 00:10:05;;;;;;;;;;;26.40;69.00;;;;;;4186452;28;20499;-40
2023/09/07 00:12:48;;;;;;;3.35;3.05;;;26.40;68.90;;;;;;4187372;28;19935;-40
2023/09/07 00:15:28;;;;;;;3.72;3.50;;;26.40;69.00;;;;;;4187329;28;20052;-40
2023/09/07 00:18:09;;;;;;;5.43;3.95;;;26.40;68.40;;;;;;4171740;28;20048;-40
2023/09/07 00:20:51;;;;;;;3.90;3.60;;;26.40;68.50;;;;;;4178158;28;20105;-40
2023/09/07 00:23:31;;;;;;;6.32;3.50;;;26.40;69.10;;;;;;4186123;28;20056;-40
2023/09/07 00:26:13;;;;;;;3.58;3.38;;;26.30;68.30;;;;;;4186957;28;20131;-40
2023/09/07 00:28:56;;;;;;;4.35;3.20;;;26.30;68.40;;;;;;4187350;28;20056;-41
2023/09/07 00:31:37;;;;;;;3.55;3.33;;;26.30;68.30;;;;;;4187248;28;20518;-40
2023/09/07 00:34:18;;;;;;;;;;;26.30;67.60;;;;;;4176225;28;20063;-41
2023/09/07 00:36:59;;;;;;;3.60;3.38;;;26.30;68.30;;;;;;4198046;28;19927;-41
2023/09/07 00:39:40;;;;;;;;;;;26.30;68.50;;;;;;4187784;28;20051;-40
2023/09/07 00:42:20;;;;;;;3.70;3.40;;;26.20;68.30;;;;;;4186166;28;20755;-40
2023/09/07 00:45:03;;;;;;;3.72;3.47;;;26.20;68.40;;;;;;4187078;28;20126;-39
2023/09/07 00:47:44;;;;;;;4.10;3.70;;;26.20;67.40;;;;;;4187174;28;20097;-40
2023/09/07 00:50:25;;;;;;;;;;;26.20;67.30;;;;;;4186549;28;20186;-40
2023/09/07 00:53:07;;;;;;;3.63;3.30;;;26.20;67.50;;;;;;4185850;28;20394;-40
2023/09/07 00:55:47;;;;;;;3.85;3.47;;;26.10;67.70;;;;;;4187273;28;20055;-40
2023/09/07 00:58:29;;;;;;;;;;;26.10;67.60;;;;;;4184183;28;20059;-39
2023/09/07 01:01:12;;;;;;;5.53;3.40;;;26.10;68.10;;;;;;4185247;28;19927;-40
2023/09/07 01:03:57;;;;;;;4.65;3.60;;;26.10;68.40;;;;;;4185820;28;20403;-49
2023/09/07 01:06:44;;;;;;;5.00;3.30;;;26.10;68.10;;;;;;4185335;28;20775;-41
2023/09/07 01:09:31;;;;;;;4.78;3.67;;;26.10;68.10;;;;;;4169817;28;20059;-40
2023/09/07 01:12:15;;;;;;;3.72;3.22;;;26.00;67.80;;;;;;4170093;28;20051;-40
2023/09/07 01:14:58;;;;;;;3.42;3.22;;;26.10;67.70;;;;;;4170354;28;20475;-49
2023/09/07 01:17:41;;;;;;;3.63;3.33;;;26.00;68.10;;;;;;4172252;28;20071;-47
2023/09/07 01:20:25;;;;;;;3.70;3.40;;;26.00;68.10;;;;;;4188807;28;20134;-51
2023/09/07 01:23:08;;;;;;;6.78;3.55;;;26.10;67.80;;;;;;4188334;28;20056;-48
2023/09/07 01:25:50;;;;;;;4.55;3.60;;;26.00;67.60;;;;;;4188367;28;20093;-48
2023/09/07 01:28:32;;;;;;;3.80;3.50;;;26.00;68.00;;;;;;4187812;28;20074;-48
2023/09/07 01:31:13;;;;;;;3.88;3.58;;;26.00;68.00;;;;;;4188930;28;20051;-49
2023/09/07 01:33:55;;;;;;;4.25;3.60;;;26.00;67.70;;;;;;4188337;28;20552;-49
2023/09/07 01:36:36;;;;;;;3.60;3.35;;;26.00;67.80;;;;;;4189531;28;20060;-48
2023/09/07 01:39:18;;;;;;;3.92;3.20;;;26.00;68.00;;;;;;4188660;28;20481;-50
2023/09/07 01:41:59;;;;;;;5.40;3.70;;;26.00;68.10;;;;;;4189448;28;20093;-47
2023/09/07 01:44:40;;;;;;;;;;;26.00;68.20;;;;;;4190424;28;20047;-49
2023/09/07 01:47:21;;;;;;;4.55;3.50;;;26.00;68.60;;;;;;4189249;28;19936;-50
2023/09/07 01:50:02;;;;;;;3.25;3.05;;;25.90;69.40;;;;;;4189303;28;20063;-46
2023/09/07 01:52:43;;;;;;;4.63;3.60;;;25.90;68.80;;;;;;4187703;28;20614;-46
2023/09/07 01:55:28;;;;;;;4.63;4.20;;;25.90;68.30;;;;;;4187968;28;20111;-46
2023/09/07 01:58:09;;;;;;;5.53;3.88;;;25.90;68.00;;;;;;4171607;28;20090;-39
2023/09/07 02:00:50;;;;;;;4.35;3.95;;;25.90;68.20;;;;;;4159909;28;20052;-40
2023/09/07 02:03:32;;;;;;;4.40;4.00;;;25.90;67.80;;;;;;4170956;28;20052;-40
2023/09/07 02:06:13;;;;;;;4.85;4.30;;;25.90;67.50;;;;;;4187528;28;20051;-39
2023/09/07 02:08:54;;;;;;;;;;;25.90;67.50;;;;;;4188676;28;20044;-39
2023/09/07 02:11:37;;;;;;;4.13;3.72;;;25.90;68.00;;;;;;4187968;28;20058;-39
2023/09/07 02:14:18;;;;;;;4.28;4.03;;;25.90;68.40;;;;;;4189050;28;20054;-39
2023/09/07 02:16:59;;;;;;;4.60;4.20;;;25.80;67.80;;;;;;4172427;28;20052;-39
2023/09/07 02:19:40;;;;;;;4.97;4.13;;;25.80;67.80;;;;;;4165841;28;20146;-40
2023/09/07 02:22:21;;;;;;;6.00;4.25;;;25.80;67.80;;;;;;4177035;28;20518;-39
2023/09/07 02:25:05;;;;;;;3.90;3.63;;;25.80;68.00;;;;;;4199079;28;20487;-39
2023/09/07 02:27:48;;;;;;;4.80;3.97;;;25.80;68.00;;;;;;4195627;28;20051;-39
2023/09/07 02:30:29;;;;;;;4.47;4.07;;;25.80;67.80;;;;;;4188409;28;20110;-39
2023/09/07 02:33:12;;;;;;;4.78;4.30;;;25.80;67.90;;;;;;4170723;28;20059;-39
2023/09/07 02:35:53;;;;;;;4.22;3.85;;;25.70;67.70;;;;;;4177329;28;20175;-39
2023/09/07 02:38:34;;;;;;;4.45;4.05;;;25.70;67.60;;;;;;4177438;28;20052;-39
2023/09/07 02:41:16;;;;;;;4.63;3.83;;;25.70;67.60;;;;;;4186835;28;20395;-39
2023/09/07 02:43:58;;;;;;;4.93;4.43;;;25.70;67.40;;;;;;4186648;28;20055;-40
2023/09/07 02:46:39;;;;;;;4.60;4.20;;;25.70;67.40;;;;;;4171939;28;20055;-38
2023/09/07 02:49:20;;;;;;;;;;;25.70;67.60;;;;;;4171794;28;20524;-39
2023/09/07 02:52:01;;;;;;;4.68;4.30;;;25.70;68.20;;;;;;4180741;28;19927;-39
2023/09/07 02:54:43;;;;;;;5.13;4.47;;;25.70;68.80;;;;;;4187094;28;20499;-39
2023/09/07 02:57:25;;;;;;;4.80;4.40;;;25.60;68.10;;;;;;4186853;28;20098;-40
2023/09/07 03:00:09;;;;;;;6.72;4.90;;;25.60;67.80;;;;;;4188048;28;20456;-39
2023/09/07 03:02:51;;;;;;;4.65;4.25;;;25.60;67.40;;;;;;4187019;28;20055;-39
2023/09/07 03:05:31;;;;;;;;;;;25.60;67.60;;;;;;4187300;28;20886;-49
2023/09/07 03:08:13;;;;;;;4.85;4.53;;;25.60;68.20;;;;;;4186475;28;19931;-39
2023/09/07 03:10:54;;;;;;;4.68;4.28;;;25.60;68.80;;;;;;4186540;28;20051;-38
2023/09/07 03:13:36;;;;;;;4.75;4.32;;;25.60;68.00;;;;;;4175169;28;20399;-38
2023/09/07 03:16:18;;;;;;;4.75;4.28;;;25.60;67.50;;;;;;4181031;28;20113;-39
2023/09/07 03:19:00;;;;;;;4.72;4.20;;;25.60;67.10;;;;;;4187802;28;20502;-39
2023/09/07 03:21:41;;;;;;;6.63;5.10;;;25.50;67.10;;;;;;4187552;28;20059;-39
2023/09/07 03:24:22;;;;;;;4.32;3.92;;;25.50;67.30;;;;;;4177870;28;20075;-39
2023/09/07 03:27:03;;;;;;;6.05;4.55;;;25.50;67.30;;;;;;4187762;28;20055;-39
2023/09/07 03:29:45;;;;;;;4.82;4.43;;;25.50;67.10;;;;;;4186281;28;20055;-39
2023/09/07 03:32:31;;;;;;;4.78;4.47;;;25.50;67.10;;;;;;4185989;28;20056;-49
2023/09/07 03:35:12;;;;;;;4.68;4.22;;;25.50;67.30;;;;;;4186775;28;20122;-39
2023/09/07 03:37:54;;;;;;;5.13;4.72;;;25.40;67.20;;;;;;4185752;28;20075;-40
2023/09/07 03:40:34;;;;;;;5.55;4.63;;;25.40;67.20;;;;;;4187231;28;20060;-39
2023/09/07 03:43:16;;;;;;;7.30;4.70;;;25.40;67.40;;;;;;4186058;28;20122;-39
2023/09/07 03:45:58;;;;;;;5.35;4.60;;;25.40;67.00;;;;;;4187025;28;20047;-39
2023/09/07 03:48:40;;;;;;;4.97;4.45;;;25.40;66.70;;;;;;4185961;28;20055;-39
2023/09/07 03:51:23;;;;;;;4.53;4.22;;;25.40;67.10;;;;;;4187134;28;20109;-39
2023/09/07 03:54:04;;;;;;;5.00;4.50;;;25.40;67.60;;;;;;4175966;28;20121;-39
2023/09/07 03:56:45;;;;;;;6.47;5.13;;;25.30;67.70;;;;;;4186723;28;20059;-39
2023/09/07 03:59:28;;;;;;;;;;;25.30;67.70;;;;;;4186299;28;20056;-39
2023/09/07 04:02:09;;;;;;;5.57;4.95;;;25.30;68.20;;;;;;4186849;28;19931;-38
2023/09/07 04:04:52;;;;;;;5.38;4.95;;;25.30;68.60;;;;;;4187088;28;20051;-38
2023/09/07 04:07:33;;;;;;;4.97;4.68;;;25.30;67.70;;;;;;4186058;28;20074;-38
2023/09/07 04:10:14;;;;;;;7.13;4.80;;;25.30;67.40;;;;;;4186117;28;20059;-38
2023/09/07 04:12:54;;;;;;;5.15;4.75;;;25.30;67.50;;;;;;4186598;28;20055;-38
2023/09/07 04:15:42;;;;;;;5.32;4.90;;;25.20;68.50;;;;;;4187253;28;20055;-38
2023/09/07 04:18:23;;;;;;;6.70;4.32;;;25.20;67.60;;;;;;4186086;28;20517;-38
2023/09/07 04:21:09;;;;;;;7.45;5.30;;;25.20;67.40;;;;;;4186120;28;20047;-38
2023/09/07 04:23:50;;;;;;;5.97;5.07;;;25.20;66.80;;;;;;4174473;28;20074;-38
2023/09/07 04:26:32;;;;;;;5.90;5.13;;;25.20;67.40;;;;;;4173934;28;20060;-38
2023/09/07 04:29:13;;;;;;;5.53;5.13;;;25.20;66.80;;;;;;4187146;28;20056;-37
2023/09/07 04:31:55;;;;;;;5.35;4.95;;;25.10;66.90;;;;;;4184694;28;20059;-37
2023/09/07 04:34:35;;;;;;;5.32;4.82;;;25.10;67.20;;;;;;4179098;28;20051;-47
2023/09/07 04:37:18;;;;;;;5.70;4.85;;;25.10;68.30;;;;;;4184825;28;20515;-46
2023/09/07 04:39:59;;;;;;;5.45;4.88;;;25.10;67.50;;;;;;4169530;28;20057;-37
2023/09/07 04:42:40;;;;;;;5.22;4.78;;;25.10;67.50;;;;;;4180441;28;20052;-37
2023/09/07 04:45:21;;;;;;;6.55;5.60;;;25.10;67.50;;;;;;4186893;28;20510;-37
2023/09/07 04:48:04;;;;;;;6.05;5.43;;;25.10;67.30;;;;;;4185439;28;20047;-38
2023/09/07 04:50:45;;;;;;;6.05;5.30;;;25.00;67.10;;;;;;4186608;28;20626;-37
2023/09/07 04:53:29;;;;;;;5.93;5.43;;;25.00;67.30;;;;;;4181456;28;20126;-38
2023/09/07 04:56:10;;;;;;;6.07;5.03;;;25.00;67.30;;;;;;4183911;28;20048;-39
2023/09/07 04:58:52;;;;;;;5.43;4.90;;;25.10;67.90;;;;;;4172536;28;20083;-39
2023/09/07 05:01:33;;;;;;;6.13;4.88;;;25.10;68.00;;;;;;4186064;28;20788;-39
2023/09/07 05:04:14;;;;;;;;;;;25.00;68.00;;;;;;4190488;28;20054;-39
2023/09/07 05:06:57;;;;;;;6.70;5.00;;;25.00;68.30;;;;;;4188682;28;20077;-39
2023/09/07 05:09:39;;;;;;;6.68;5.15;;;25.00;69.00;;;;;;4189721;28;20573;-39
2023/09/07 05:12:20;;;;;;;8.38;5.65;;;25.00;68.10;;;;;;4188450;28;20051;-39
2023/09/07 05:15:02;;;;;;;8.00;5.10;;;25.00;67.70;;;;;;4187576;28;20094;-39
2023/09/07 05:17:44;;;;;;;6.68;5.65;;;25.00;67.50;;;;;;4176635;28;20550;-38
2023/09/07 05:20:25;;;;;;;7.03;5.40;;;25.00;67.20;;;;;;4171701;28;20055;-40
2023/09/07 05:23:07;;;;;;;7.00;5.30;;;25.00;66.60;;;;;;4171694;28;20561;-39
2023/09/07 05:25:52;;;;;;;;;;;25.00;66.60;;;;;;4172017;28;20052;-38
2023/09/07 05:28:35;;;;;;;6.25;5.60;;;24.90;66.90;;;;;;4172500;28;19935;-39
2023/09/07 05:31:16;;;;;;;;;;;24.90;67.80;;;;;;4188420;28;20407;-39
2023/09/07 05:33:57;;;;;;;6.20;5.65;;;24.90;67.90;;;;;;4188290;28;20398;-39
2023/09/07 05:36:38;;;;;;;6.00;5.50;;;24.90;68.50;;;;;;4172701;28;20064;-39
2023/09/07 05:39:19;;;;;;;8.07;6.13;;;24.80;67.80;;;;;;4171181;28;20059;-44
2023/09/07 05:42:01;;;;;;;6.22;5.47;;;24.90;67.30;;;;;;4188992;28;20048;-44
2023/09/07 05:44:43;;;;;;;5.88;5.28;;;24.80;67.70;;;;;;4188371;28;20067;-44
2023/09/07 05:47:26;;;;;;;7.20;5.82;;;24.80;68.00;;;;;;4187275;28;20102;-46
2023/09/07 05:50:08;;;;;;;7.72;5.45;;;24.80;67.90;;;;;;4182856;28;20047;-48
2023/09/07 05:52:49;;;;;;;6.75;6.05;;;24.80;67.80;;;;;;4182417;28;20214;-47
2023/09/07 05:55:30;;;;;;;6.30;5.32;;;24.80;67.90;;;;;;4200049;28;20101;-45
2023/09/07 05:58:14;;;;;;;;;;;24.80;68.10;;;;;;4188771;28;20048;-48
2023/09/07 06:00:57;;;;;;;6.80;5.93;;;24.70;68.30;;;;;;4187193;28;19927;-47
2023/09/07 06:03:39;;;;;;;7.80;5.47;;;24.70;68.80;;;;;;4175832;28;20055;-44
2023/09/07 06:06:20;;;;;;;6.32;5.72;;;24.70;68.60;;;;;;4187937;28;20059;-46
2023/09/07 06:09:03;;;;;;;6.35;5.32;;;24.70;68.60;;;;;;4187999;28;20048;-46
2023/09/07 06:11:45;;;;;;;5.88;5.38;;;24.70;68.70;;;;;;4187977;28;20055;-48
2023/09/07 06:14:28;;;;;;;7.53;5.68;;;24.70;68.70;;;;;;4162149;28;20199;-47
2023/09/07 06:17:08;;;;;;;5.68;5.18;;;24.70;68.80;;;;;;4181941;28;20047;-48
2023/09/07 06:19:49;;;;;;;7.60;5.57;;;24.70;68.80;;;;;;4188906;28;20047;-51
2023/09/07 06:22:30;;;;;;;;;;;24.70;69.00;;;;;;4182431;28;20179;-49
2023/09/07 06:25:11;;;;;;;8.30;5.67;;;24.70;69.10;;;;;;4187811;28;19947;-46
2023/09/07 06:27:54;;;;;;;7.32;5.85;;;24.70;69.40;;;;;;4173861;28;20059;-50
2023/09/07 06:30:36;;;;;;;;;;;24.70;69.10;;;;;;4188719;28;20063;-48
2023/09/07 06:33:18;;;;;;;9.88;6.55;;;24.70;69.10;;;;;;4185875;28;19947;-47
2023/09/07 06:36:02;;;;;;;6.97;5.63;;;24.70;69.40;;;;;;4146684;28;20047;-41
2023/09/07 06:38:47;;;;;;;9.00;5.88;;;24.70;69.10;;;;;;4184753;28;20051;-40
2023/09/07 06:41:29;;;;;;;7.55;6.55;;;24.70;68.70;;;;;;4175190;28;20162;-40
2023/09/07 06:44:10;;;;;;;10.32;6.75;;;24.70;68.40;;;;;;4177325;28;20055;-40
2023/09/07 06:46:53;;;;;;;7.05;6.28;;;24.70;68.50;;;;;;4173274;28;20133;-40
2023/09/07 06:49:34;;;;;;;6.93;6.22;;;24.70;68.60;;;;;;4184974;28;20105;-40
2023/09/07 06:52:16;;;;;;;;;;;24.70;68.90;;;;;;4169162;28;20064;-41
2023/09/07 06:54:57;;;;;;;8.25;5.72;;;24.70;69.00;;;;;;4169379;28;19928;-40
2023/09/07 06:57:39;;;;;;;7.75;6.85;;;24.70;69.40;;;;;;4178499;28;20142;-43
2023/09/07 07:00:20;;;;;;;8.32;6.53;;;24.70;70.10;;;;;;4180495;28;20140;-40
2023/09/07 07:03:03;;;;;;;9.32;6.43;;;24.70;69.50;;;;;;4172457;28;20063;-42
2023/09/07 07:05:44;;;;;;;6.75;6.25;;;24.70;69.50;;;;;;4175023;28;20093;-41
2023/09/07 07:08:25;;;;;;;7.03;6.53;;;24.60;69.60;;;;;;4169201;28;20063;-41
2023/09/07 07:11:07;;;;;;;9.48;6.78;;;24.70;69.70;;;;;;4185229;28;20052;-42
2023/09/07 07:13:49;;;;;;;7.10;6.50;;;24.60;69.90;;;;;;4167966;28;20076;-43
2023/09/07 07:16:30;;;;;;;8.82;6.45;;;24.60;69.80;;;;;;4177032;28;20052;-41
2023/09/07 07:19:13;;;;;;;8.73;7.05;;;24.60;70.70;;;;;;4184972;28;20157;-41
2023/09/07 07:21:54;;;;;;;8.15;6.72;;;24.60;70.00;;;;;;4184084;28;20043;-40
2023/09/07 07:24:35;;;;;;;7.72;6.82;;;24.60;70.10;;;;;;4182056;28;20052;-41
2023/09/07 07:27:16;;;;;;;;;;;24.70;70.30;;;;;;4184192;28;20056;-43
2023/09/07 07:29:57;;;;;;;8.60;6.50;;;24.70;70.30;;;;;;4171659;28;19932;-40
2023/09/07 07:32:38;;;;;;;8.30;6.57;;;24.70;70.50;;;;;;4169402;28;20064;-43
2023/09/07 07:35:20;;;;;;;9.43;6.53;;;24.70;70.40;;;;;;4181571;28;20126;-41
2023/09/07 07:38:03;;;;;;;7.70;6.53;;;24.70;70.40;;;;;;4183627;28;20495;-40
2023/09/07 07:40:46;;;;;;;7.10;6.05;;;24.80;70.60;;;;;;4182816;28;20109;-41
2023/09/07 07:43:28;;;;;;;6.75;6.15;;;24.80;70.60;;;;;;4181853;28;20064;-43
2023/09/07 07:46:09;;;;;;;7.55;6.05;;;24.80;70.50;;;;;;4184881;28;20051;-41
2023/09/07 07:48:51;;;;;;;7.55;6.57;;;24.90;70.40;;;;;;4174024;28;20059;-43
2023/09/07 07:51:34;;;;;;;;;;;24.90;70.30;;;;;;4185526;28;20050;-40
2023/09/07 07:54:16;;;;;;;9.00;6.00;;;25.00;70.30;;;;;;4175639;28;20394;-41
2023/09/07 07:56:57;;;;;;;7.38;6.00;;;25.00;70.10;;;;;;4168241;28;20043;-42
2023/09/07 07:59:38;;;;;;;7.65;5.90;;;25.00;69.90;;;;;;4156737;28;20052;-45
2023/09/07 08:02:20;;;;;;;6.85;5.95;;;25.00;69.70;;;;;;4184641;28;20400;-46
2023/09/07 08:05:01;;;;;;;5.63;5.15;;;25.10;69.70;;;;;;4169202;28;20067;-45
2023/09/07 08:07:43;;;;;;;;;;;25.10;69.50;;;;;;4196024;28;20087;-42
2023/09/07 08:10:24;;;;;;;6.15;5.22;;;25.20;69.60;;;;;;4184376;28;20413;-44
2023/09/07 08:13:05;;;;;;;9.65;6.07;;;25.20;69.30;;;;;;4177025;28;20083;-43
2023/09/07 08:15:49;;;;;;;6.20;5.80;;;25.20;68.90;;;;;;4178746;28;20059;-41
2023/09/07 08:18:32;;;;;;;5.63;5.15;;;25.30;69.00;;;;;;4177149;28;21086;-42
2023/09/07 08:21:15;;;;;;;7.00;5.70;;;25.30;69.00;;;;;;4178671;28;20043;-42
2023/09/07 08:23:59;;;;;;;6.13;5.10;;;25.30;69.00;;;;;;4182342;28;20048;-42
2023/09/07 08:26:41;;;;;;;5.95;5.40;;;25.40;69.00;;;;;;4168673;28;20101;-42
2023/09/07 08:29:24;;;;;;;5.80;5.20;;;25.40;68.70;;;;;;4169469;28;20067;-42
2023/09/07 08:32:06;;;;;;;5.55;5.18;;;25.40;68.50;;;;;;4172215;28;20056;-41
2023/09/07 08:34:48;;;;;;;6.25;5.68;;;25.50;68.10;;;;;;4167774;28;20048;-46
2023/09/07 08:37:30;;;;;;;6.10;5.55;;;25.50;67.80;;;;;;4163332;28;20932;-41
2023/09/07 08:40:12;;;;;;;6.55;5.70;;;25.50;67.80;;;;;;4167260;28;20060;-44
2023/09/07 08:42:53;;;;;;;8.43;6.25;;;25.60;67.50;;;;;;4173884;28;20423;-50
2023/09/07 08:45:40;;;;;;;6.82;5.82;;;25.60;67.10;;;;;;4168530;28;20109;-50
2023/09/07 08:48:21;;;;;;;5.68;5.18;;;25.60;67.10;;;;;;4173535;28;20086;-49
2023/09/07 08:51:04;;;;;;;7.68;6.00;;;25.70;67.10;;;;;;4184037;28;20182;-50
2023/09/07 08:53:46;;;;;;;6.38;5.65;;;25.70;66.90;;;;;;4168138;28;20059;-52
2023/09/07 08:56:29;;;;;;;5.93;5.45;;;25.70;66.90;;;;;;4177192;28;20122;-50
2023/09/07 08:59:10;;;;;;;6.93;5.80;;;25.80;66.60;;;;;;4176727;28;20178;-52
2023/09/07 09:01:51;;;;;;;5.78;4.93;;;25.80;66.70;;;;;;4171902;28;20106;-40
2023/09/07 09:04:33;;;;;;;5.68;5.18;;;25.90;66.50;;;;;;4183589;28;20055;-42
2023/09/07 09:07:15;;;;;;;7.43;6.68;;;25.90;66.80;;;;;;4181730;28;20071;-45
2023/09/07 09:10:05;;;;;;;8.75;6.40;;;25.90;66.50;;;;;;4177915;28;20071;-42
2023/09/07 09:12:48;;;;;;;5.90;5.40;;;26.00;66.30;;;;;;4173762;28;20521;-41
2023/09/07 09:15:29;;;;;;;6.90;6.30;;;26.00;66.50;;;;;;4123719;28;20101;-42
2023/09/07 09:18:12;;;;;;;;;;;26.00;66.70;;;;;;4188652;28;20105;-41
2023/09/07 09:20:54;;;;;;;9.55;7.63;;;26.10;66.80;;;;;;4172977;28;19975;-41
2023/09/07 09:23:35;;;;;;;;;;;26.10;66.90;;;;;;4182452;28;20403;-46
2023/09/07 09:26:16;;;;;;;9.23;7.47;;;26.10;66.70;;;;;;4167745;28;20073;-47
2023/09/07 09:28:58;;;;;;;7.72;7.00;;;26.20;66.30;;;;;;4173909;28;20056;-50
2023/09/07 09:31:40;;;;;;;6.30;5.70;;;26.20;66.20;;;;;;4166562;28;20064;-49
2023/09/07 09:34:22;;;;;;;6.38;5.88;;;26.30;67.40;;;;;;4180774;28;20102;-48
2023/09/07 09:37:05;;;;;;;6.90;6.40;;;26.30;66.50;;;;;;4178753;28;20506;-48
2023/09/07 09:39:50;;;;;;;8.02;6.07;;;26.30;66.00;;;;;;4170633;28;20086;-52
2023/09/07 09:42:31;;;;;;;7.20;6.50;;;26.40;66.30;;;;;;4169815;28;20055;-40
2023/09/07 09:45:14;;;;;;;6.70;6.00;;;26.40;66.30;;;;;;4166723;28;20051;-42
2023/09/07 09:47:57;;;;;;;7.95;6.45;;;26.40;67.20;;;;;;4165265;28;20110;-51
2023/09/07 09:50:40;;;;;;;8.13;5.80;;;26.50;66.20;;;;;;4173722;28;20103;-47
2023/09/07 09:53:22;;;;;;;9.50;7.45;;;26.50;66.60;;;;;;4171872;28;20109;-48
2023/09/07 09:56:04;;;;;;;11.57;7.00;;;26.60;66.80;;;;;;4185662;28;20097;-47
2023/09/07 09:58:45;;;;;;;7.40;6.70;;;26.60;66.80;;;;;;4180948;28;20055;-40
2023/09/07 10:01:29;;;;;;;;;;;26.60;66.80;;;;;;4186087;28;20508;-48
2023/09/07 10:04:11;;;;;;;6.90;6.05;;;26.70;66.80;;;;;;4171799;28;19930;-50
2023/09/07 10:06:56;;;;;;;8.30;5.43;;;26.70;66.20;;;;;;4170696;28;20048;-48
2023/09/07 10:09:39;;;;;;;8.38;5.18;;;26.80;65.60;;;;;;4175025;28;20126;-49
2023/09/07 10:12:29;;;;;;;6.78;4.72;;;26.80;65.10;;;;;;4166623;28;20064;-49
2023/09/07 10:15:23;;;;;;;6.85;5.55;;;26.80;64.50;;;;;;4112023;28;20077;-46
2023/09/07 10:18:08;;;;;;;7.72;4.80;;;26.80;64.20;;;;;;4176117;28;20066;-47
2023/09/07 10:20:52;;;;;;;5.45;4.95;;;26.80;65.00;;;;;;4168934;28;20055;-53
2023/09/07 10:23:38;;;;;;;6.40;5.18;;;26.90;63.90;;;;;;4166911;28;20052;-51
2023/09/07 10:26:21;;;;;;;5.40;4.78;;;26.90;62.90;;;;;;4173688;28;20056;-52
2023/09/07 10:29:05;;;;;;;5.20;4.80;;;26.90;63.40;;;;;;4180129;28;20048;-51
2023/09/07 10:31:52;;;;;;;7.88;5.13;;;27.00;63.00;;;;;;4170675;28;20072;-51
2023/09/07 10:34:39;;;;;;;6.47;5.03;;;27.00;62.20;;;;;;4170163;28;20063;-50
2023/09/07 10:37:20;;;;;;;8.00;5.07;;;27.00;62.80;;;;;;4180837;28;20056;-50
2023/09/07 10:40:01;;;;;;;4.25;3.92;;;27.10;63.30;;;;;;4169606;28;20186;-47
2023/09/07 10:42:44;;;;;;;5.68;4.45;;;27.10;62.80;;;;;;4170446;28;20056;-48
2023/09/07 10:45:25;;;;;;;4.63;4.25;;;27.20;62.20;;;;;;4179716;28;20055;-50
2023/09/07 10:48:09;;;;;;;5.55;4.68;;;27.20;62.10;;;;;;4175341;28;20047;-53
2023/09/07 10:50:52;;;;;;;4.47;4.07;;;27.20;61.80;;;;;;4184042;28;20121;-49
2023/09/07 10:53:34;;;;;;;4.60;4.13;;;27.20;61.60;;;;;;4183855;28;20177;-52
2023/09/07 10:56:15;;;;;;;5.93;4.32;;;27.20;61.70;;;;;;4169700;28;20473;-47
2023/09/07 10:58:56;;;;;;;5.88;4.43;;;27.30;61.70;;;;;;4169847;28;20833;-47
2023/09/07 11:01:37;;;;;;;4.93;4.43;;;27.30;61.00;;;;;;4184906;28;20070;-48
2023/09/07 11:04:20;;;;;;;4.30;4.00;;;27.30;60.40;;;;;;4184128;28;20335;-52
2023/09/07 11:07:04;;;;;;;4.93;4.53;;;27.40;60.50;;;;;;4185006;28;20105;-50
2023/09/07 11:09:45;;;;;;;6.80;4.80;;;27.40;59.40;;;;;;4185360;28;20051;-51
2023/09/07 11:12:25;;;;;;;;;;;27.40;59.70;;;;;;4186402;28;20059;-51
2023/09/07 11:15:10;;;;;;;4.45;4.03;;;27.40;59.80;;;;;;4170151;28;19931;-53
2023/09/07 11:17:52;;;;;;;4.20;3.80;;;27.50;60.10;;;;;;4185502;28;20487;-53
2023/09/07 11:20:33;;;;;;;5.18;4.70;;;27.50;59.40;;;;;;4169387;28;20056;-53
2023/09/07 11:23:16;;;;;;;7.25;3.75;;;27.50;59.50;;;;;;4184292;28;20060;-53
2023/09/07 11:25:57;;;;;;;5.07;4.63;;;27.50;59.30;;;;;;4177012;28;20055;-40
2023/09/07 11:28:39;;;;;;;5.43;4.53;;;27.60;59.00;;;;;;4180718;28;20121;-43
2023/09/07 11:31:21;;;;;;;6.38;4.13;;;27.60;59.10;;;;;;4187454;28;20060;-40
2023/09/07 11:34:04;;;;;;;5.47;4.60;;;27.60;59.30;;;;;;4187552;28;20557;-40
2023/09/07 11:36:45;;;;;;;4.60;4.20;;;27.60;59.80;;;;;;4188035;28;20181;-39
2023/09/07 11:39:27;;;;;;;6.75;4.40;;;27.70;60.20;;;;;;4186452;28;20561;-41
2023/09/07 11:42:08;;;;;;;5.45;4.20;;;27.70;60.20;;;;;;4186816;28;20116;-39
2023/09/07 11:44:49;;;;;;;;;;;27.70;60.00;;;;;;4187945;28;20059;-40
2023/09/07 11:47:30;;;;;;;6.18;4.70;;;27.80;60.60;;;;;;4187346;28;19927;-52
2023/09/07 11:50:11;;;;;;;8.60;4.40;;;27.70;62.40;;;;;;4187663;28;20174;-51
2023/09/07 11:52:53;;;;;;;6.85;4.32;;;27.70;61.90;;;;;;4187013;28;20055;-49
2023/09/07 11:55:35;;;;;;;;;;;27.70;61.20;;;;;;4188135;28;20503;-48
2023/09/07 11:58:16;;;;;;;6.00;4.18;;;27.80;60.90;;;;;;4187852;28;19932;-50
2023/09/07 12:00:57;;;;;;;;;;;27.80;60.10;;;;;;4182219;28;20169;-41
2023/09/07 12:03:38;;;;;;;4.60;3.45;;;27.80;60.40;;;;;;4188011;28;19974;-41
2023/09/07 12:06:20;;;;;;;6.13;3.85;;;27.90;59.70;;;;;;4168968;28;20082;-46
2023/09/07 12:09:05;;;;;;;4.93;4.25;;;27.90;58.90;;;;;;4147779;28;20051;-46
2023/09/07 12:11:48;;;;;;;4.82;4.05;;;27.90;59.00;;;;;;4183039;28;20048;-49
2023/09/07 12:14:31;;;;;;;6.88;3.97;;;27.90;58.40;;;;;;4186866;28;20525;-41
2023/09/07 12:17:12;;;;;;;4.20;3.90;;;27.90;58.30;;;;;;4186598;28;20055;-40
2023/09/07 12:19:53;;;;;;;4.38;3.95;;;27.90;57.70;;;;;;4187188;28;20514;-42
2023/09/07 12:22:35;;;;;;;4.72;4.32;;;27.90;57.80;;;;;;4186670;28;20114;-41
2023/09/07 12:25:17;;;;;;;4.50;3.85;;;28.00;58.10;;;;;;4187581;28;20073;-44
2023/09/07 12:28:01;;;;;;;4.63;3.90;;;28.00;57.70;;;;;;4187110;28;20056;-41
2023/09/07 12:30:44;;;;;;;4.38;4.00;;;28.00;57.10;;;;;;4183642;28;20052;-43
2023/09/07 12:33:25;;;;;;;5.20;3.80;;;28.00;57.00;;;;;;4186717;28;20082;-42
2023/09/07 12:36:09;;;;;;;5.88;3.78;;;28.00;57.70;;;;;;4186656;28;20055;-43
2023/09/07 12:38:50;;;;;;;4.72;4.05;;;28.10;58.10;;;;;;4186925;28;20506;-44
2023/09/07 12:41:31;;;;;;;;;;;28.10;57.80;;;;;;4187830;28;20048;-41
2023/09/07 12:44:14;;;;;;;4.60;4.20;;;28.10;57.70;;;;;;4174771;28;20061;-44
2023/09/07 12:46:55;;;;;;;4.82;4.43;;;28.10;57.10;;;;;;4186391;28;20490;-42
2023/09/07 12:49:36;;;;;;;4.60;4.10;;;28.10;57.00;;;;;;4186612;28;20052;-43
2023/09/07 12:52:17;;;;;;;4.40;3.42;;;28.10;56.70;;;;;;4185168;28;20755;-41
2023/09/07 12:54:58;;;;;;;4.63;3.72;;;28.10;57.70;;;;;;4186856;28;20055;-41
2023/09/07 12:57:40;;;;;;;5.88;4.25;;;28.20;57.50;;;;;;4177923;28;20598;-51
2023/09/07 13:00:23;;;;;;;5.63;3.92;;;28.20;56.90;;;;;;4186140;28;20448;-53
2023/09/07 13:03:04;;;;;;;5.32;3.75;;;28.20;56.20;;;;;;4186517;28;20186;-52
2023/09/07 13:05:45;;;;;;;6.15;4.05;;;28.20;56.40;;;;;;4173271;28;20060;-50
2023/09/07 13:08:29;;;;;;;4.43;3.70;;;28.20;56.10;;;;;;4186420;28;20122;-50
2023/09/07 13:11:10;;;;;;;4.70;3.78;;;28.20;55.90;;;;;;4186798;28;20621;-51
2023/09/07 13:13:52;;;;;;;;;;;28.30;55.50;;;;;;4190526;28;20075;-49
2023/09/07 13:16:34;;;;;;;5.65;4.10;;;28.30;56.50;;;;;;4189783;28;19931;-53
2023/09/07 13:19:15;;;;;;;5.45;4.03;;;28.20;55.40;;;;;;4190176;28;20093;-49
2023/09/07 13:21:56;;;;;;;3.70;3.40;;;28.30;55.30;;;;;;4188945;28;20051;-50
2023/09/07 13:24:38;;;;;;;5.25;3.60;;;28.30;55.60;;;;;;4181993;28;20126;-52
2023/09/07 13:27:18;;;;;;;4.25;3.88;;;28.30;55.50;;;;;;4184428;28;20514;-48
2023/09/07 13:30:01;;;;;;;4.32;3.90;;;28.30;55.90;;;;;;4188178;28;20082;-51
2023/09/07 13:32:45;;;;;;;3.70;3.30;;;28.40;56.50;;;;;;4189067;28;20097;-48
2023/09/07 13:35:26;;;;;;;10.05;4.07;;;28.40;56.20;;;;;;4189148;28;20052;-48
2023/09/07 13:38:08;;;;;;;4.32;3.80;;;28.40;57.30;;;;;;4189667;28;20055;-51
2023/09/07 13:40:49;;;;;;;4.60;3.88;;;28.50;57.20;;;;;;4188842;28;20510;-49
2023/09/07 13:43:29;;;;;;;;;;;28.50;58.30;;;;;;4190013;28;20510;-53
2023/09/07 13:46:11;;;;;;;4.68;4.28;;;28.50;58.20;;;;;;4189234;28;20054;-52
2023/09/07 13:48:54;;;;;;;3.83;3.53;;;28.60;57.10;;;;;;4187694;28;20055;-54
2023/09/07 13:51:38;;;;;;;3.88;3.45;;;28.60;57.90;;;;;;4188836;28;20178;-52
2023/09/07 13:54:18;;;;;;;3.78;3.53;;;28.60;57.80;;;;;;4188877;28;20071;-52
2023/09/07 13:56:59;;;;;;;;;;;28.70;57.90;;;;;;4189281;28;20042;-51
2023/09/07 13:59:40;;;;;;;3.63;3.42;;;28.70;58.00;;;;;;4189276;28;20041;-50
2023/09/07 14:02:21;;;;;;;6.55;4.07;;;28.70;58.30;;;;;;4199191;28;20186;-48
2023/09/07 14:05:04;;;;;;;5.45;4.50;;;28.80;57.80;;;;;;4189059;28;20066;-52
2023/09/07 14:07:45;;;;;;;4.60;3.97;;;28.80;57.90;;;;;;4189523;28;20052;-51
2023/09/07 14:10:26;;;;;;;4.03;3.70;;;28.80;58.20;;;;;;4188488;28;20674;-52
2023/09/07 14:13:08;;;;;;;3.80;3.50;;;28.80;58.20;;;;;;4188814;28;20497;-53